createdAt,value
2023-04-06T05:02:08.529Z,-0.45
2023-04-06T05:04:47.971Z,-0.45
2023-04-06T05:07:22.085Z,-0.45
2023-04-06T05:09:50.246Z,-0.45
2023-04-06T05:12:17.639Z,-0.43
2023-04-06T05:15:16.594Z,-0.43
2023-04-06T05:17:44.230Z,-0.40
2023-04-06T05:20:16.440Z,-0.38
2023-04-06T05:22:48.444Z,-0.31
2023-04-06T05:25:17.271Z,-0.27
2023-04-06T05:27:46.072Z,-0.19
2023-04-06T05:30:28.717Z,-0.13
2023-04-06T05:32:55.781Z,-0.11
2023-04-06T05:35:26.072Z,-0.07
2023-04-06T05:37:57.047Z,0.05
2023-04-06T05:40:27.239Z,0.08
2023-04-06T05:42:54.535Z,0.14
2023-04-06T05:48:06.915Z,0.29
2023-04-06T05:50:34.459Z,0.31
2023-04-06T05:53:01.832Z,0.40
2023-04-06T05:55:35.709Z,0.52
2023-04-06T05:58:11.230Z,0.59
2023-04-06T06:00:38.582Z,0.67
2023-04-06T06:03:09.647Z,0.74
2023-04-06T06:05:39.285Z,0.80
2023-04-06T06:08:13.305Z,0.86
2023-04-06T06:10:41.614Z,0.96
2023-04-06T06:13:13.505Z,1.05
2023-04-06T06:15:40.873Z,1.14
2023-04-06T06:18:07.716Z,1.26
2023-04-06T06:20:35.427Z,1.30
2023-04-06T06:23:04.650Z,1.46
2023-04-06T06:25:34.038Z,1.51
2023-04-06T06:28:00.919Z,1.68
2023-04-06T06:30:31.408Z,1.83
2023-04-06T06:33:00.465Z,1.96
2023-04-06T06:35:29.158Z,2.12
2023-04-06T06:37:56.714Z,2.33
2023-04-06T06:40:27.478Z,2.49
2023-04-06T06:42:58.482Z,2.70
2023-04-06T06:45:35.665Z,2.99
2023-04-06T06:48:04.705Z,3.25
2023-04-06T06:50:32.090Z,3.43
2023-04-06T06:52:58.806Z,3.64
2023-04-06T06:55:27.949Z,3.88
2023-04-06T06:57:54.964Z,4.17
2023-04-06T07:00:24.061Z,4.39
2023-04-06T07:02:52.354Z,4.58
2023-04-06T07:05:29.045Z,4.84
2023-04-06T07:07:58.528Z,5.16
2023-04-06T07:10:27.328Z,5.48
2023-04-06T07:12:53.978Z,5.82
2023-04-06T07:15:21.763Z,6.12
2023-04-06T07:17:49.051Z,6.40
2023-04-06T07:20:16.729Z,6.71
2023-04-06T07:22:44.422Z,6.93
2023-04-06T07:25:11.656Z,7.19
2023-04-06T07:27:38.324Z,7.50
2023-04-06T07:30:06.793Z,7.76
2023-04-06T07:32:35.679Z,7.99
2023-04-06T07:35:04.099Z,8.27
2023-04-06T07:37:30.834Z,8.47
2023-04-06T07:39:58.207Z,8.69
2023-04-06T07:42:24.851Z,8.91
2023-04-06T07:44:52.525Z,9.06
2023-04-06T07:47:19.413Z,9.23
2023-04-06T07:49:46.924Z,9.40
2023-04-06T07:52:13.969Z,9.59
2023-04-06T07:54:43.422Z,9.63
2023-04-06T07:57:10.092Z,9.89
2023-04-06T07:59:37.545Z,10.16
2023-04-06T08:02:04.253Z,10.46
2023-04-06T08:04:31.497Z,10.56
2023-04-06T08:06:58.169Z,10.34
2023-04-06T08:09:25.647Z,10.08
2023-04-06T08:11:52.298Z,10.01
2023-04-06T08:14:19.322Z,9.98
2023-04-06T08:16:45.920Z,10.13
2023-04-06T08:19:13.373Z,10.21
2023-04-06T08:21:41.030Z,10.19
2023-04-06T08:24:08.566Z,10.17
2023-04-06T08:26:35.547Z,10.16
2023-04-06T08:29:03.063Z,10.34
2023-04-06T08:31:29.741Z,10.42
2023-04-06T08:33:57.543Z,10.51
2023-04-06T08:36:24.248Z,10.62
2023-04-06T08:38:51.652Z,10.80
2023-04-06T08:41:19.207Z,10.94
2023-04-06T08:43:49.778Z,10.99
2023-04-06T08:46:16.754Z,11.01
2023-04-06T08:48:43.983Z,10.94
2023-04-06T08:51:12.141Z,10.92
2023-04-06T08:53:39.570Z,10.91
2023-04-06T08:56:07.632Z,10.95
2023-04-06T08:58:38.975Z,11.07
2023-04-06T09:01:12.920Z,11.20
2023-04-06T09:03:42.054Z,11.24
2023-04-06T09:06:10.521Z,11.14
2023-04-06T09:08:41.202Z,11.00
2023-04-06T09:11:08.698Z,11.02
2023-04-06T09:13:49.206Z,11.20
2023-04-06T09:16:16.576Z,11.40
2023-04-06T09:18:44.299Z,11.49
2023-04-06T09:21:11.740Z,11.54
2023-04-06T09:23:40.226Z,11.63
2023-04-06T09:26:14.904Z,11.74
2023-04-06T09:29:02.607Z,11.58
2023-04-06T09:31:33.973Z,11.71
2023-04-06T09:34:02.305Z,11.88
2023-04-06T09:36:33.264Z,12.01
2023-04-06T09:39:02.809Z,12.21
2023-04-06T09:41:34.959Z,12.43
2023-04-06T09:44:12.207Z,12.48
2023-04-06T09:46:55.115Z,12.58
2023-04-06T09:49:29.434Z,12.63
2023-04-06T09:52:02.532Z,12.67
2023-04-06T09:54:31.956Z,12.78
2023-04-06T09:57:04.660Z,12.96
2023-04-06T09:59:38.742Z,13.04
2023-04-06T10:02:07.507Z,13.20
2023-04-06T10:04:34.825Z,13.23
2023-04-06T10:07:03.016Z,13.35
2023-04-06T10:09:37.279Z,13.42
2023-04-06T10:12:07.638Z,13.27
2023-04-06T10:14:38.957Z,13.18
2023-04-06T10:17:06.268Z,13.42
2023-04-06T10:19:51.138Z,13.75
2023-04-06T10:22:25.457Z,13.91
2023-04-06T10:24:52.636Z,13.98
2023-04-06T10:27:29.273Z,14.07
2023-04-06T10:30:03.194Z,14.14
2023-04-06T10:32:37.304Z,14.19
2023-04-06T10:35:11.617Z,14.42
2023-04-06T10:37:53.242Z,14.71
2023-04-06T10:40:27.384Z,14.76
2023-04-06T10:42:55.615Z,14.71
2023-04-06T10:45:25.040Z,14.84
2023-04-06T10:47:55.857Z,14.96
2023-04-06T10:50:23.883Z,15.07
2023-04-06T10:53:01.930Z,15.11
2023-04-06T10:55:30.469Z,15.31
2023-04-06T10:57:57.077Z,15.38
2023-04-06T11:00:26.135Z,15.30
2023-04-06T11:03:01.153Z,15.10
2023-04-06T11:05:28.762Z,15.11
2023-04-06T11:07:55.404Z,15.01
2023-04-06T11:10:24.059Z,15.00
2023-04-06T11:12:57.392Z,14.96
2023-04-06T11:15:24.820Z,14.78
2023-04-06T11:17:51.588Z,15.04
2023-04-06T11:20:20.766Z,15.06
2023-04-06T11:22:53.741Z,15.07
2023-04-06T11:25:21.249Z,15.06
2023-04-06T11:27:48.487Z,15.29
2023-04-06T11:30:16.314Z,15.56
2023-04-06T11:32:45.231Z,15.69
2023-04-06T11:35:23.538Z,15.51
2023-04-06T11:37:53.111Z,15.39
2023-04-06T11:40:26.049Z,15.33
2023-04-06T11:42:54.610Z,15.24
2023-04-06T11:45:21.725Z,15.09
2023-04-06T11:47:58.405Z,15.08
2023-04-06T11:50:26.008Z,15.10
2023-04-06T11:53:06.498Z,15.24
2023-04-06T11:55:39.828Z,15.24
2023-04-06T11:58:07.900Z,15.37
2023-04-06T12:00:36.092Z,15.39
2023-04-06T12:03:02.708Z,15.12
2023-04-06T12:05:30.205Z,15.04
2023-04-06T12:07:59.084Z,15.09
2023-04-06T12:10:28.421Z,15.05
2023-04-06T12:12:55.234Z,14.98
2023-04-06T12:15:22.865Z,15.18
2023-04-06T12:17:50.772Z,15.31
2023-04-06T12:20:25.257Z,15.31
2023-04-06T12:22:53.313Z,15.41
2023-04-06T12:25:20.875Z,15.42
2023-04-06T12:27:48.040Z,15.43
2023-04-06T12:30:16.245Z,15.24
2023-04-06T12:32:44.132Z,15.19
2023-04-06T12:35:12.923Z,15.18
2023-04-06T12:37:39.635Z,15.07
2023-04-06T12:40:07.689Z,15.06
2023-04-06T12:42:34.308Z,14.92
2023-04-06T12:45:01.541Z,14.83
2023-04-06T12:47:29.334Z,14.86
2023-04-06T12:49:56.659Z,14.91
2023-04-06T12:52:23.284Z,14.89
2023-04-06T12:54:51.462Z,14.81
2023-04-06T12:57:18.378Z,14.74
2023-04-06T12:59:46.007Z,14.82
2023-04-06T13:02:12.979Z,14.82
2023-04-06T13:04:40.542Z,14.77
2023-04-06T13:07:07.156Z,14.76
2023-04-06T13:09:34.431Z,14.69
2023-04-06T13:12:02.019Z,14.57
2023-04-06T13:14:29.384Z,14.40
2023-04-06T13:16:56.416Z,14.40
2023-04-06T13:19:23.905Z,14.35
2023-04-06T13:21:50.683Z,14.06
2023-04-06T13:24:18.107Z,14.04
2023-04-06T13:26:44.950Z,14.14
2023-04-06T13:29:11.966Z,14.09
2023-04-06T13:31:39.849Z,14.11
2023-04-06T13:34:07.653Z,14.14
2023-04-06T13:36:34.397Z,14.19
2023-04-06T13:39:01.605Z,14.12
2023-04-06T13:41:28.227Z,14.05
2023-04-06T13:43:55.944Z,14.06
2023-04-06T13:46:24.877Z,14.17
2023-04-06T13:48:53.052Z,14.21
2023-04-06T13:51:19.801Z,14.25
2023-04-06T13:53:47.244Z,14.18
2023-04-06T13:56:13.890Z,14.10
2023-04-06T13:58:41.627Z,14.02
2023-04-06T14:01:11.447Z,13.96
2023-04-06T14:03:40.761Z,13.92
2023-04-06T14:06:27.106Z,13.99
2023-04-06T14:08:58.408Z,14.00
2023-04-06T14:11:25.218Z,14.05
2023-04-06T14:13:52.484Z,13.95
2023-04-06T14:16:20.652Z,13.93
2023-04-06T14:18:47.981Z,13.92
2023-04-06T14:21:14.546Z,13.87
2023-04-06T14:23:42.174Z,13.85
2023-04-06T14:26:09.795Z,13.82
2023-04-06T14:28:37.307Z,13.79
2023-04-06T14:31:12.881Z,13.78
2023-04-06T14:36:41.553Z,13.88
2023-04-06T14:39:09.387Z,13.93
2023-04-06T14:41:36.235Z,14.02
2023-04-06T14:44:04.227Z,14.11
2023-04-06T14:46:31.051Z,14.10
2023-04-06T14:48:59.013Z,14.13
2023-04-06T14:51:28.171Z,14.15
2023-04-06T14:53:56.304Z,14.27
2023-04-06T14:56:24.724Z,14.38
2023-04-06T14:58:52.681Z,14.54
2023-04-06T15:01:21.399Z,14.52
2023-04-06T15:03:49.016Z,14.39
2023-04-06T15:06:17.063Z,14.37
2023-04-06T15:08:45.005Z,14.39
2023-04-06T15:11:13.060Z,14.28
2023-04-06T15:13:41.237Z,14.12
2023-04-06T15:16:08.514Z,14.18
2023-04-06T15:18:36.694Z,14.25
2023-04-06T15:21:03.603Z,14.23
2023-04-06T15:23:31.053Z,14.37
2023-04-06T15:25:58.786Z,14.40
2023-04-06T15:28:25.715Z,14.35
2023-04-06T15:30:52.751Z,14.16
2023-04-06T15:33:22.038Z,14.20
2023-04-06T15:35:49.191Z,14.22
2023-04-06T15:38:16.514Z,14.23
2023-04-06T15:40:45.669Z,14.20
2023-04-06T15:43:13.912Z,14.09
2023-04-06T15:45:41.731Z,14.12
2023-04-06T15:48:09.366Z,14.08
2023-04-06T15:50:36.592Z,14.10
2023-04-06T15:53:03.795Z,14.14
2023-04-06T15:55:30.501Z,14.16
2023-04-06T15:57:57.746Z,14.10
2023-04-06T16:00:25.394Z,14.07
2023-04-06T16:02:52.842Z,14.12
2023-04-06T16:05:19.794Z,14.13
2023-04-06T16:07:47.079Z,14.12
2023-04-06T16:10:13.721Z,14.07
2023-04-06T16:12:42.796Z,14.01
2023-04-06T16:15:09.947Z,13.93
2023-04-06T16:17:36.933Z,13.88
2023-04-06T16:20:03.945Z,13.81
2023-04-06T16:22:30.598Z,13.80
2023-04-06T16:24:57.992Z,13.80
2023-04-06T16:27:24.595Z,13.74
2023-04-06T16:29:51.994Z,13.66
2023-04-06T16:32:18.763Z,13.65
2023-04-06T16:34:47.027Z,13.59
2023-04-06T16:37:13.897Z,13.56
2023-04-06T16:39:41.208Z,13.56
2023-04-06T16:42:07.824Z,13.52
2023-04-06T16:44:35.174Z,13.40
2023-04-06T16:47:04.330Z,13.26
2023-04-06T16:49:30.978Z,13.19
2023-04-06T16:52:02.148Z,13.22
2023-04-06T16:54:28.725Z,13.24
2023-04-06T16:56:56.651Z,13.20
2023-04-06T16:59:23.253Z,13.15
2023-04-06T17:01:50.753Z,13.19
2023-04-06T17:04:17.593Z,13.13
2023-04-06T17:06:45.477Z,13.06
2023-04-06T17:09:12.189Z,13.09
2023-04-06T17:11:46.646Z,13.04
2023-04-06T17:14:14.337Z,13.04
2023-04-06T17:16:41.748Z,13.06
2023-04-06T17:19:08.453Z,12.97
2023-04-06T17:21:35.814Z,12.90
2023-04-06T17:24:02.380Z,12.82
2023-04-06T17:26:29.612Z,12.77
2023-04-06T17:28:56.218Z,12.69
2023-04-06T17:31:23.152Z,12.66
2023-04-06T17:33:50.325Z,12.51
2023-04-06T17:36:17.805Z,12.47
2023-04-06T17:38:46.274Z,12.37
2023-04-06T17:41:14.379Z,12.28
2023-04-06T17:43:41.203Z,12.26
2023-04-06T17:46:08.667Z,12.23
2023-04-06T17:48:35.467Z,12.21
2023-04-06T17:51:03.225Z,12.17
2023-04-06T17:53:34.400Z,12.13
2023-04-06T17:56:05.259Z,12.08
2023-04-06T17:58:32.009Z,12.06
2023-04-06T18:00:58.916Z,11.87
2023-04-06T18:03:26.408Z,11.80
2023-04-06T18:05:53.063Z,11.72
2023-04-06T18:08:20.383Z,11.68
2023-04-06T18:10:48.349Z,11.67
2023-04-06T18:13:15.966Z,11.60
2023-04-06T18:15:42.638Z,11.51
2023-04-06T18:18:09.953Z,11.43
2023-04-06T18:20:40.927Z,11.38
2023-04-06T18:23:08.205Z,11.34
2023-04-06T18:25:38.818Z,11.27
2023-04-06T18:28:07.517Z,11.22
2023-04-06T18:30:34.212Z,11.14
2023-04-06T18:33:01.103Z,11.09
2023-04-06T18:35:27.712Z,11.03
2023-04-06T18:37:54.672Z,10.95
2023-04-06T18:40:50.482Z,10.91
2023-04-06T18:43:18.093Z,10.88
2023-04-06T18:45:44.809Z,10.84
2023-04-06T18:48:12.085Z,10.80
2023-04-06T18:50:38.704Z,10.77
2023-04-06T18:53:05.758Z,10.67
2023-04-06T18:55:33.387Z,10.63
2023-04-06T18:58:00.856Z,10.61
2023-04-06T19:00:27.542Z,10.55
2023-04-06T19:02:54.915Z,10.51
2023-04-06T19:05:22.317Z,10.46
2023-04-06T19:07:52.880Z,10.47
2023-04-06T19:10:19.816Z,10.44
2023-04-06T19:12:47.920Z,10.39
2023-04-06T19:15:14.928Z,10.34
2023-04-06T19:17:42.465Z,10.29
2023-04-06T19:20:09.610Z,10.31
2023-04-06T19:22:37.399Z,10.26
2023-04-06T19:25:08.367Z,10.19
2023-04-06T19:27:35.351Z,10.13
2023-04-06T19:30:02.053Z,10.16
2023-04-06T19:32:30.404Z,10.13
2023-04-06T19:34:59.528Z,10.05
2023-04-06T19:37:26.786Z,10.00
2023-04-06T19:39:53.426Z,9.97
2023-04-06T19:42:22.037Z,9.97
2023-04-06T19:44:49.126Z,9.92
2023-04-06T19:47:16.636Z,9.90
2023-04-06T19:49:43.668Z,9.85
2023-04-06T19:52:11.330Z,9.81
2023-04-06T19:54:41.347Z,9.79
2023-04-06T19:57:08.715Z,9.75
2023-04-06T19:59:35.523Z,9.76
2023-04-06T20:02:02.945Z,9.75
2023-04-06T20:04:29.868Z,9.65
2023-04-06T20:06:56.868Z,9.60
2023-04-06T20:09:24.380Z,9.55
2023-04-06T20:11:53.952Z,9.48
2023-04-06T20:14:22.244Z,9.42
2023-04-06T20:16:50.977Z,9.40
2023-04-06T20:19:17.979Z,9.41
2023-04-06T20:21:45.571Z,9.36
2023-04-06T20:24:12.316Z,9.42
2023-04-06T20:26:39.609Z,9.38
2023-04-06T20:29:06.249Z,9.33
